Time;durP1;ratioP1;P1;durP2;ratioP2;P2;SDS_P1;SDS_P2;PMS_P1;PMS_P2;Temp;Humidity;BMP_temperature;BMP_pressure;BME280_temperature;BME280_humidity;BME280_pressure;Samples;Min_cycle;Max_cycle;Signal;HPM_P1;HPM_P2
2022/06/23 00:01:42;;;;;;;4.57;3.60;;;;;;;19.29;98.46;98835.94;4889343;29;20852;-87
2022/06/23 00:04:51;;;;;;;;;;;;;;;;;;;;;
2022/06/23 00:08:35;;;;;;;4.60;4.20;;;;;;;19.27;98.84;98834.34;4904706;29;20040;-89
2022/06/23 00:11:01;;;;;;;5.70;4.15;;;;;;;19.20;99.41;98824.97;4831207;29;20078;-85
2022/06/23 00:13:37;;;;;;;6.10;4.50;;;;;;;19.23;99.35;98825.25;4869607;29;20045;-83
2022/06/23 00:16:05;;;;;;;5.13;4.63;;;;;;;19.21;99.57;98819.38;4885965;29;20039;-84
2022/06/23 00:18:36;;;;;;;8.98;5.63;;;;;;;19.18;100.00;98822.56;4908876;29;20047;-85
2022/06/23 00:21:14;;;;;;;8.40;7.07;;;;;;;19.13;100.00;98823.31;4906401;29;20036;-84
2022/06/23 00:23:45;;;;;;;7.15;6.45;;;;;;;19.09;100.00;98821.47;4907716;29;20087;-84
2022/06/23 00:26:15;;;;;;;6.22;5.63;;;;;;;19.12;100.00;98818.28;4890893;29;20064;-83
2022/06/23 00:28:50;;;;;;;8.50;6.88;;;;;;;19.07;100.00;98812.94;4877823;29;20491;-84
2022/06/23 00:31:30;;;;;;;8.45;5.90;;;;;;;19.01;100.00;98820.06;4908213;29;20039;-84
2022/06/23 00:33:58;;;;;;;8.35;6.53;;;;;;;18.93;100.00;98805.34;4908976;29;20035;-84
2022/06/23 00:36:33;;;;;;;7.45;6.40;;;;;;;18.95;100.00;98805.09;4907911;29;20039;-84
2022/06/23 00:38:59;;;;;;;6.28;5.68;;;;;;;18.88;100.00;98810.66;4903897;29;20123;-87
2022/06/23 00:41:36;;;;;;;9.02;5.70;;;;;;;18.81;100.00;98804.72;4894490;29;20124;-85
2022/06/23 00:44:07;;;;;;;7.75;5.60;;;;;;;18.75;100.00;98806.53;4908024;29;20039;-86
2022/06/23 00:46:49;;;;;;;6.88;5.43;;;;;;;18.78;100.00;98799.91;4907463;29;20435;-85
2022/06/23 00:49:28;;;;;;;6.93;5.43;;;;;;;18.83;100.00;98805.28;4905838;29;20037;-86
2022/06/23 00:52:00;;;;;;;9.07;6.20;;;;;;;18.74;100.00;98801.50;4908861;29;20509;-85
2022/06/23 00:54:37;;;;;;;9.15;5.97;;;;;;;18.70;100.00;98804.66;4890100;29;20036;-86
2022/06/23 00:57:49;;;;;;;7.53;5.90;;;;;;;18.67;100.00;98796.38;4907258;29;20040;-86
2022/06/23 01:00:17;;;;;;;7.10;6.35;;;;;;;18.70;100.00;98799.34;4825510;29;20498;-85
2022/06/23 01:03:06;;;;;;;8.07;6.13;;;;;;;18.65;100.00;98796.63;4897618;29;20111;-84
2022/06/23 01:05:35;;;;;;;9.93;6.78;;;;;;;18.68;100.00;98796.16;4887485;29;20165;-84
2022/06/23 01:08:16;;;;;;;9.43;7.13;;;;;;;18.65;100.00;98780.69;4906328;29;20024;-85
2022/06/23 01:10:55;;;;;;;10.20;7.13;;;;;;;18.60;100.00;98772.66;4900797;29;20040;-86
2022/06/23 01:13:42;;;;;;;12.88;8.10;;;;;;;18.59;100.00;98789.69;4907957;29;20041;-85
2022/06/23 01:16:08;;;;;;;8.95;7.15;;;;;;;18.49;100.00;98787.72;4904854;29;20375;-84
2022/06/23 01:18:44;;;;;;;9.45;7.00;;;;;;;18.46;100.00;98788.25;4906034;29;20039;-85
2022/06/23 01:21:15;;;;;;;15.63;7.68;;;;;;;18.44;100.00;98795.66;4903963;29;20538;-86
2022/06/23 01:23:50;;;;;;;10.38;7.53;;;;;;;18.37;100.00;98785.25;4904508;29;20395;-85
2022/06/23 01:26:26;;;;;;;15.40;8.27;;;;;;;18.41;100.00;98781.03;4907600;29;20102;-85
2022/06/23 01:29:01;;;;;;;10.98;8.48;;;;;;;18.41;100.00;98781.03;4905629;29;20032;-85
2022/06/23 01:31:42;;;;;;;14.93;8.50;;;;;;;18.40;100.00;98770.66;4891963;29;20443;-83
2022/06/23 01:34:20;;;;;;;12.27;8.63;;;;;;;18.31;100.00;98765.00;4904867;29;20058;-85
2022/06/23 01:36:59;;;;;;;14.00;8.10;;;;;;;18.30;100.00;98768.72;4906438;29;20114;-85
2022/06/23 01:39:49;;;;;;;11.93;8.73;;;;;;;18.32;100.00;98777.22;4890916;29;20048;-84
2022/06/23 01:42:28;;;;;;;10.43;7.70;;;;;;;18.31;100.00;98767.66;4879994;29;20398;-85
2022/06/23 01:45:10;;;;;;;10.30;7.35;;;;;;;18.24;100.00;98765.22;4903545;29;20476;-83
2022/06/23 01:48:05;;;;;;;15.63;9.77;;;;;;;18.13;100.00;98768.81;4905419;29;20039;-85
2022/06/23 01:50:50;;;;;;;14.88;8.70;;;;;;;18.11;100.00;98769.06;4891267;29;20075;-84
2022/06/23 01:53:29;;;;;;;14.60;8.77;;;;;;;18.13;100.00;98763.50;4902981;29;20061;-85
2022/06/23 01:56:15;;;;;;;14.90;9.43;;;;;;;18.00;100.00;98764.66;4906969;29;20036;-85
2022/06/23 01:59:05;;;;;;;14.48;9.18;;;;;;;18.02;100.00;98756.50;4905428;29;20513;-85
2022/06/23 02:01:51;;;;;;;15.75;9.48;;;;;;;18.10;100.00;98759.50;4908362;29;20040;-84
2022/06/23 02:04:36;;;;;;;14.45;9.55;;;;;;;17.96;100.00;98763.56;4903916;29;20083;-86
2022/06/23 02:07:18;;;;;;;16.23;9.35;;;;;;;17.96;100.00;98758.25;4903173;29;20035;-84
2022/06/23 02:09:53;;;;;;;15.55;10.20;;;;;;;17.95;100.00;98754.00;4889329;29;20482;-85
2022/06/23 02:12:34;;;;;;;13.20;9.18;;;;;;;17.80;100.00;98757.31;4888334;29;20127;-84
2022/06/23 02:15:11;;;;;;;11.00;9.10;;;;;;;17.83;100.00;98752.28;4905943;29;20478;-86
2022/06/23 02:17:45;;;;;;;13.30;10.10;;;;;;;17.61;100.00;98756.81;4902860;29;20123;-85
2022/06/23 02:20:21;;;;;;;15.48;9.75;;;;;;;17.61;100.00;98764.78;4905042;29;20024;-86
2022/06/23 02:22:48;;;;;;;14.25;9.60;;;;;;;17.72;100.00;98761.19;4890432;29;20036;-85
2022/06/23 02:25:21;;;;;;;12.77;10.10;;;;;;;17.77;100.00;98750.63;4907898;29;20443;-86
2022/06/23 02:27:52;;;;;;;14.52;9.50;;;;;;;17.81;100.00;98753.59;4907469;29;20024;-85
2022/06/23 02:30:41;;;;;;;11.10;8.45;;;;;;;17.84;100.00;98755.75;4892287;29;20028;-87
2022/06/23 02:33:36;;;;;;;12.43;9.23;;;;;;;17.74;100.00;98745.00;4905722;29;20037;-86
2022/06/23 02:36:25;;;;;;;12.77;9.02;;;;;;;17.73;100.00;98749.53;4886030;29;20040;-87
2022/06/23 02:38:58;;;;;;;14.20;7.75;;;;;;;17.68;100.00;98746.81;4875856;29;20049;-85
2022/06/23 02:41:40;;;;;;;11.30;8.05;;;;;;;17.65;100.00;98742.00;4901730;29;20099;-84
2022/06/23 02:44:24;;;;;;;14.82;8.52;;;;;;;17.68;100.00;98749.44;4901799;29;20043;-85
2022/06/23 02:46:58;;;;;;;13.18;8.15;;;;;;;17.68;100.00;98757.41;4903836;29;20390;-84
2022/06/23 02:49:27;;;;;;;12.98;9.25;;;;;;;17.65;100.00;98753.44;4906587;29;20032;-85
2022/06/23 02:52:02;;;;;;;12.07;8.45;;;;;;;17.60;100.00;98747.25;4904166;29;20087;-85
2022/06/23 02:54:30;;;;;;;11.82;8.00;;;;;;;17.63;100.00;98749.41;4887172;29;20079;-87
2022/06/23 02:57:02;;;;;;;12.52;8.68;;;;;;;17.68;100.00;98746.81;4904950;29;21520;-86
2022/06/23 02:59:46;;;;;;;10.57;8.30;;;;;;;17.75;100.00;98744.78;4903154;29;20036;-85
2022/06/23 03:02:45;;;;;;;11.63;7.80;;;;;;;17.85;100.00;98739.56;4903276;29;20028;-85
2022/06/23 03:05:36;;;;;;;10.35;8.05;;;;;;;17.97;100.00;98739.41;4907256;29;20039;-85
2022/06/23 03:08:42;;;;;;;11.25;8.52;;;;;;;18.13;100.00;98742.25;4905371;29;20032;-86
2022/06/23 03:14:35;;;;;;;12.88;7.65;;;;;;;18.14;100.00;98725.25;4884176;29;20036;-87
2022/06/23 03:17:15;;;;;;;11.45;7.57;;;;;;;18.09;100.00;98726.03;4891931;29;20074;-85
2022/06/23 03:19:54;;;;;;;13.63;8.02;;;;;;;18.03;100.00;98724.34;4905117;29;20119;-86
2022/06/23 03:22:46;;;;;;;10.40;8.02;;;;;;;17.99;100.00;98721.41;4887799;29;20067;-85
2022/06/23 03:25:32;;;;;;;12.45;8.27;;;;;;;17.82;100.00;98713.50;4908170;29;20032;-85
2022/06/23 03:28:03;;;;;;;10.40;7.60;;;;;;;17.82;100.00;98724.13;4904079;29;20033;-86
2022/06/23 03:30:45;;;;;;;9.43;7.45;;;;;;;17.73;100.00;98712.38;4908361;29;20036;-85
2022/06/23 03:33:24;;;;;;;10.15;7.60;;;;;;;17.70;100.00;98712.88;4903531;29;20037;-84
2022/06/23 03:36:01;;;;;;;11.48;7.78;;;;;;;17.66;100.00;98717.06;4902489;29;20036;-85
2022/06/23 03:41:38;;;;;;;9.93;7.18;;;;;;;17.48;100.00;98720.84;4901428;29;20068;-86
2022/06/23 03:44:09;;;;;;;9.57;6.97;;;;;;;17.50;100.00;98719.56;4905478;29;20044;-88
2022/06/23 03:46:47;;;;;;;10.15;7.28;;;;;;;17.51;100.00;98715.84;4902724;29;20368;-85
2022/06/23 03:49:40;;;;;;;10.68;7.50;;;;;;;17.55;100.00;98718.78;4902826;29;20032;-85
2022/06/23 03:52:18;;;;;;;10.57;8.07;;;;;;;17.47;100.00;98704.13;4903864;29;20032;-85
2022/06/23 03:55:00;;;;;;;9.85;8.00;;;;;;;17.53;100.00;98708.44;4891015;29;20041;-86
2022/06/23 03:57:46;;;;;;;12.15;8.07;;;;;;;17.54;100.00;98706.56;4889313;29;20161;-86
2022/06/23 04:00:28;;;;;;;14.25;9.25;;;;;;;17.55;100.00;98711.66;4905036;29;20386;-88
2022/06/23 04:03:12;;;;;;;9.40;8.38;;;;;;;17.56;100.00;98710.59;4908341;29;20043;-86
2022/06/23 04:06:11;;;;;;;9.55;7.72;;;;;;;17.56;100.00;98710.59;4908105;29;20087;-86
2022/06/23 04:08:47;;;;;;;10.18;7.53;;;;;;;17.56;100.00;98707.94;4907084;29;20064;-86
2022/06/23 04:14:06;;;;;;;10.90;7.95;;;;;;;17.68;100.00;98725.56;4908988;29;20036;-86
2022/06/23 04:16:33;;;;;;;9.05;7.57;;;;;;;17.69;100.00;98727.19;4904812;29;20048;-87
2022/06/23 04:19:07;;;;;;;11.15;8.07;;;;;;;17.71;100.00;98725.09;4904462;29;20292;-85
2022/06/23 04:21:33;;;;;;;9.50;7.43;;;;;;;17.72;100.00;98710.78;4904875;29;20056;-86
2022/06/23 04:24:05;;;;;;;11.10;8.70;;;;;;;17.85;100.00;98715.66;4910161;29;20032;-85
2022/06/23 04:26:35;;;;;;;8.52;7.47;;;;;;;17.89;100.00;98715.19;4891630;29;20394;-86
2022/06/23 04:29:30;;;;;;;9.68;7.50;;;;;;;17.93;100.00;98705.66;4909739;29;20035;-86
2022/06/23 04:32:21;;;;;;;7.75;6.90;;;;;;;17.92;100.00;98709.38;4903988;29;20131;-87
2022/06/23 04:34:54;;;;;;;9.55;7.45;;;;;;;18.00;100.00;98708.91;4887661;29;20056;-86
2022/06/23 04:37:34;;;;;;;7.88;6.57;;;;;;;18.05;100.00;98719.59;4907876;29;20064;-87
2022/06/23 04:40:22;;;;;;;9.10;7.03;;;;;;;18.10;100.00;98724.16;4887309;29;20036;-86
2022/06/23 04:43:05;;;;;;;9.02;7.03;;;;;;;18.20;100.00;98726.09;4889592;29;20559;-87
2022/06/23 04:45:47;;;;;;;9.32;7.13;;;;;;;18.17;100.00;98718.66;4890026;29;20040;-86
2022/06/23 04:48:30;;;;;;;9.82;7.00;;;;;;;18.21;100.00;98714.44;4892780;29;20040;-86
2022/06/23 04:50:59;;;;;;;9.27;6.63;;;;;;;18.25;100.00;98715.50;4889266;29;20065;-86
2022/06/23 04:53:44;;;;;;;8.10;6.68;;;;;;;18.28;100.00;98720.34;4906279;29;20043;-86
2022/06/23 04:56:28;;;;;;;9.32;6.53;;;;;;;18.26;100.00;98723.25;4906209;29;20403;-86
2022/06/23 04:58:59;;;;;;;13.95;7.18;;;;;;;18.27;100.00;98714.22;4887400;29;20040;-85
2022/06/23 05:01:36;;;;;;;10.57;7.78;;;;;;;18.33;100.00;98720.38;4889243;29;20483;-86
2022/06/23 05:04:03;;;;;;;9.48;7.75;;;;;;;18.42;100.00;98720.72;4905145;29;20076;-85
2022/06/23 05:06:42;;;;;;;11.13;8.73;;;;;;;18.47;100.00;98725.25;4910461;29;20513;-85
2022/06/23 05:09:30;;;;;;;9.98;8.48;;;;;;;18.52;100.00;98717.34;4904730;29;20126;-85
2022/06/23 05:12:17;;;;;;;11.80;8.75;;;;;;;18.56;100.00;98719.22;4902308;29;20049;-84
2022/06/23 05:14:51;;;;;;;10.95;8.40;;;;;;;18.59;100.00;98717.91;4905958;29;20542;-85
2022/06/23 05:17:21;;;;;;;10.80;9.23;;;;;;;18.69;100.00;98715.34;4909358;29;20479;-84
2022/06/23 05:19:59;;;;;;;14.60;9.25;;;;;;;18.79;100.00;98719.91;4906802;29;20111;-86
2022/06/23 05:22:27;;;;;;;13.85;11.00;;;;;;;18.81;100.00;98723.13;4890947;29;20471;-86
2022/06/23 05:24:57;;;;;;;14.23;10.60;;;;;;;18.88;100.00;98711.44;4907628;29;20028;-86
2022/06/23 05:27:24;;;;;;;15.80;10.63;;;;;;;18.83;100.00;98710.38;4905646;29;20390;-86
2022/06/23 05:30:01;;;;;;;15.45;10.82;;;;;;;18.96;100.00;98717.06;4905307;29;20032;-86
2022/06/23 05:32:34;;;;;;;15.77;11.15;;;;;;;18.98;100.00;98719.50;4907043;29;20032;-87
2022/06/23 05:35:16;;;;;;;14.50;10.63;;;;;;;19.03;100.00;98722.19;4890314;29;20043;-87
2022/06/23 05:37:51;;;;;;;18.08;10.60;;;;;;;19.15;100.00;98723.84;4907725;29;20115;-86
2022/06/23 05:40:35;;;;;;;18.45;12.73;;;;;;;19.09;100.00;98715.06;4886056;29;20508;-87
2022/06/23 05:43:03;;;;;;;15.85;11.60;;;;;;;19.09;100.00;98709.72;4906209;29;20039;-86
2022/06/23 05:45:40;;;;;;;15.20;11.15;;;;;;;19.20;100.00;98722.00;4887786;29;20067;-85
2022/06/23 05:48:10;;;;;;;20.48;11.50;;;;;;;19.29;100.00;98721.53;4905885;29;20040;-86
2022/06/23 05:51:17;;;;;;;19.42;12.02;;;;;;;19.36;100.00;98720.22;4907203;29;20040;-85
2022/06/23 05:54:17;;;;;;;16.92;10.95;;;;;;;19.44;100.00;98718.91;4892881;29;20036;-85
2022/06/23 05:57:18;;;;;;;22.88;12.88;;;;;;;19.53;100.00;98717.34;4904980;29;20040;-87
2022/06/23 06:00:14;;;;;;;17.85;12.35;;;;;;;19.61;100.00;98717.91;4900872;29;20100;-84
2022/06/23 06:02:55;;;;;;;19.08;13.63;;;;;;;19.63;100.00;98713.09;4878022;29;20076;-89
2022/06/23 06:05:27;;;;;;;21.63;13.20;;;;;;;19.75;100.00;98705.69;4904474;29;20071;-87
2022/06/23 06:07:53;;;;;;;18.08;12.82;;;;;;;19.72;100.00;98694.75;4904748;29;20445;-87
2022/06/23 06:10:22;;;;;;;18.08;13.05;;;;;;;19.81;100.00;98699.31;4887621;29;20123;-87
2022/06/23 06:12:50;;;;;;;17.33;12.68;;;;;;;19.90;100.00;98701.47;4905461;29;20036;-86
2022/06/23 06:15:18;;;;;;;19.95;13.82;;;;;;;19.92;100.00;98704.69;4906356;29;20439;-87
2022/06/23 06:17:45;;;;;;;22.00;13.38;;;;;;;19.98;100.00;98701.78;4887737;29;20056;-87
2022/06/23 06:20:13;;;;;;;19.45;11.43;;;;;;;19.98;100.00;98698.28;4905644;29;20040;-87
2022/06/23 06:22:47;;;;;;;21.92;12.65;;;;;;;20.11;100.00;98697.78;4902053;29;20044;-88
2022/06/23 06:25:34;;;;;;;17.95;12.25;;;;;;;20.10;100.00;98688.19;4886721;29;20035;-87
2022/06/23 06:28:31;;;;;;;19.17;11.48;;;;;;;20.29;100.00;98702.81;4905077;29;20040;-89
2022/06/23 06:31:24;;;;;;;17.77;11.07;;;;;;;20.38;100.00;98698.56;4875965;29;20050;-86
2022/06/23 06:34:00;;;;;;;17.40;11.48;;;;;;;20.44;100.00;98691.34;4906431;29;20036;-87
2022/06/23 06:36:36;;;;;;;22.45;12.40;;;;;;;20.46;100.00;98686.56;4887853;29;20033;-88
2022/06/23 06:39:40;;;;;;;20.17;11.65;;;;;;;20.59;100.00;98691.34;4903964;29;20387;-88
2022/06/23 06:42:06;;;;;;;16.77;9.75;;;;;;;20.65;100.00;98694.81;4906739;29;20028;-90
2022/06/23 06:44:35;;;;;;;14.95;10.25;;;;;;;20.66;100.00;98696.41;4911892;29;20474;-90
2022/06/23 06:47:01;;;;;;;18.25;10.23;;;;;;;20.63;100.00;98687.06;4904893;29;20028;-90
2022/06/23 06:49:40;;;;;;;;;;;;;;;;;;;;;
2022/06/23 06:52:25;;;;;;;14.45;9.32;;;;;;;20.87;100.00;98691.84;4890794;29;20032;-86
2022/06/23 06:55:04;;;;;;;17.00;9.57;;;;;;;20.91;100.00;98687.56;4871788;29;20518;-84
2022/06/23 06:57:39;;;;;;;11.38;8.65;;;;;;;21.02;100.00;98685.66;4906133;29;20032;-87
2022/06/23 07:00:11;;;;;;;13.73;8.25;;;;;;;21.09;100.00;98682.72;4901089;29;20072;-88
2022/06/23 07:02:46;;;;;;;15.43;8.73;;;;;;;21.14;100.00;98681.91;4903565;29;20051;-86
2022/06/23 07:05:22;;;;;;;12.93;8.63;;;;;;;21.30;100.00;98687.97;4885092;29;20486;-88
2022/06/23 07:07:56;;;;;;;13.05;8.60;;;;;;;21.30;100.00;98686.06;4903955;29;20555;-86
2022/06/23 07:10:41;;;;;;;12.55;8.60;;;;;;;21.36;100.00;98684.19;4906514;29;20510;-88
2022/06/23 07:14:01;;;;;;;13.07;7.82;;;;;;;21.27;99.27;98654.59;4906132;29;20547;-87
2022/06/23 07:17:37;;;;;;;14.55;8.68;;;;;;;21.52;99.88;98675.03;4903989;29;20083;-87
2022/06/23 07:20:28;;;;;;;16.35;9.00;;;;;;;21.40;99.10;98650.53;4878369;29;20059;-88
2022/06/23 07:23:26;;;;;;;14.07;8.52;;;;;;;21.54;98.30;98670.19;4901518;29;20395;-87
2022/06/23 07:26:36;;;;;;;15.05;9.45;;;;;;;21.48;98.58;98641.13;4904670;29;20391;-86
2022/06/23 07:29:11;;;;;;;13.75;8.68;;;;;;;21.39;98.20;98632.91;4863052;29;20106;-85
2022/06/23 07:32:15;;;;;;;16.40;8.50;;;;;;;21.54;97.35;98659.53;4850641;29;20041;-85
2022/06/23 07:39:44;;;;;;;15.15;8.05;;;;;;;21.78;99.26;98671.44;4853883;29;20089;-86
2022/06/23 07:42:57;;;;;;;14.77;8.35;;;;;;;21.82;99.16;98651.09;4820953;29;20049;-86
2022/06/23 07:45:43;;;;;;;15.00;8.25;;;;;;;21.97;99.34;98659.00;4833171;29;20495;-88
2022/06/23 07:48:09;;;;;;;13.70;7.47;;;;;;;22.08;99.05;98653.56;4837028;29;20041;-86
2022/06/23 07:50:34;;;;;;;13.23;7.82;;;;;;;22.10;97.61;98662.09;4849384;29;20098;-85
2022/06/23 07:53:00;;;;;;;14.15;7.82;;;;;;;22.19;97.91;98662.28;4822348;29;20127;-86
2022/06/23 07:55:33;;;;;;;13.75;9.00;;;;;;;22.04;96.24;98648.00;4850320;29;20041;-87
2022/06/23 07:58:00;;;;;;;;;;;;;;;22.25;96.42;98655.84;4851596;29;20041;-86
2022/06/23 08:00:27;;;;;;;13.32;7.97;;;;;;;22.15;95.92;98634.53;4909593;29;19950;-85
2022/06/23 08:03:03;;;;;;;14.85;7.47;;;;;;;22.31;97.69;98652.03;4909859;29;20039;-85
2022/06/23 08:05:39;;;;;;;13.07;7.10;;;;;;;22.48;96.60;98648.16;4893004;29;20035;-86
2022/06/23 08:08:07;;;;;;;12.98;7.50;;;;;;;22.52;95.76;98647.31;4907726;29;20028;-86
2022/06/23 08:10:33;;;;;;;14.90;7.95;;;;;;;22.61;96.04;98644.81;4908280;29;20032;-84
2022/06/23 08:13:06;;;;;;;10.13;7.13;;;;;;;22.63;95.41;98629.28;4907148;29;20032;-85
2022/06/23 08:18:52;;;;;;;11.23;6.78;;;;;;;22.96;95.00;98640.13;4907858;29;20048;-86
2022/06/23 08:21:24;;;;;;;9.88;7.63;;;;;;;22.96;93.92;98640.13;4910775;29;20024;-87
2022/06/23 08:24:07;;;;;;;10.15;6.70;;;;;;;23.13;92.82;98633.50;4907811;29;20394;-86
2022/06/23 08:26:37;;;;;;;14.52;7.88;;;;;;;23.21;93.17;98621.34;4907053;29;20056;-86
2022/06/23 08:33:42;;;;;;;12.27;8.25;;;;;;;23.24;92.52;98605.50;4887309;29;20114;-87
2022/06/23 08:37:06;;;;;;;13.90;8.43;;;;;;;23.53;92.47;98603.78;4875387;29;20115;-86
2022/06/23 08:40:04;;;;;;;13.43;7.97;;;;;;;23.70;91.89;98632.72;4853423;29;20079;-87
2022/06/23 08:42:39;;;;;;;13.85;7.93;;;;;;;23.71;93.51;98622.81;4906088;29;20503;-86
2022/06/23 08:45:16;;;;;;;12.98;7.65;;;;;;;23.90;92.78;98628.13;4907257;29;20060;-85
2022/06/23 08:47:51;;;;;;;10.95;8.15;;;;;;;23.91;90.91;98617.13;4881561;29;20486;-85
2022/06/23 08:50:47;;;;;;;11.77;8.18;;;;;;;23.86;92.57;98619.09;4888277;29;20067;-86
2022/06/23 08:53:26;;;;;;;10.55;7.63;;;;;;;24.05;92.55;98624.41;4900304;29;20407;-87
2022/06/23 08:56:07;;;;;;;14.85;7.93;;;;;;;24.03;90.60;98614.00;4907254;29;20480;-87
2022/06/23 08:58:39;;;;;;;10.45;8.10;;;;;;;24.13;91.32;98610.34;4874958;29;20087;-85
2022/06/23 09:01:13;;;;;;;12.77;7.10;;;;;;;24.22;91.74;98608.56;4905197;29;20504;-86
2022/06/23 09:04:05;;;;;;;10.30;7.45;;;;;;;24.22;91.81;98610.47;4907934;29;20036;-85
2022/06/23 09:06:56;;;;;;;11.30;7.00;;;;;;;24.37;90.53;98614.75;4888268;29;20083;-85
2022/06/23 09:10:04;;;;;;;7.80;7.00;;;;;;;24.39;90.31;98613.38;4892341;29;20430;-87
2022/06/23 09:17:31;;;;;;;17.73;7.80;;;;;;;24.61;90.71;98585.06;4791586;29;20127;-87
2022/06/23 09:21:10;;;;;;;12.60;8.60;;;;;;;24.95;90.73;98607.22;4829688;29;20051;-87
2022/06/23 09:31:38;;;;;;;11.15;7.85;;;;;;;24.99;87.16;98575.19;4807145;29;20497;-87
2022/06/23 09:34:13;;;;;;;11.93;8.38;;;;;;;25.27;87.29;98585.84;4784524;29;20540;-86
2022/06/23 09:37:00;;;;;;;12.05;7.82;;;;;;;25.39;86.99;98586.13;4813756;29;20058;-86
2022/06/23 09:39:53;;;;;;;14.00;8.02;;;;;;;25.30;85.16;98577.19;4863161;29;20052;-86
2022/06/23 09:42:37;;;;;;;11.23;7.45;;;;;;;25.37;88.06;98574.88;4906248;29;20091;-86
2022/06/23 09:45:21;;;;;;;10.70;7.47;;;;;;;25.41;85.48;98578.53;4907513;29;20060;-86
2022/06/23 09:47:51;;;;;;;15.10;7.80;;;;;;;25.66;85.41;98565.63;4904438;29;22197;-86
2022/06/23 09:50:37;;;;;;;8.38;7.10;;;;;;;25.70;85.45;98577.34;4890434;29;20028;-87
2022/06/23 09:53:03;;;;;;;11.57;7.25;;;;;;;25.66;83.42;98566.41;4905140;29;20045;-86
2022/06/23 09:55:46;;;;;;;9.18;6.47;;;;;;;25.73;84.81;98568.66;4889921;29;20064;-87
2022/06/23 09:58:38;;;;;;;10.23;7.32;;;;;;;25.81;82.50;98554.47;4909352;29;20386;-87
2022/06/23 10:01:22;;;;;;;10.50;6.88;;;;;;;25.99;83.65;98559.94;4906762;29;20120;-88
2022/06/23 10:03:50;;;;;;;11.02;6.88;;;;;;;26.07;82.98;98559.19;4907614;29;20036;-87
2022/06/23 10:06:37;;;;;;;9.98;6.45;;;;;;;26.22;81.38;98551.84;4893509;29;20051;-86
2022/06/23 10:09:19;;;;;;;9.13;6.75;;;;;;;26.24;79.58;98552.31;4905501;29;20076;-85
2022/06/23 10:12:07;;;;;;;9.13;6.15;;;;;;;26.40;79.75;98535.75;4889266;29;20044;-85
2022/06/23 10:15:11;;;;;;;8.02;6.10;;;;;;;26.57;81.19;98549.28;4904618;29;20084;-86
2022/06/23 10:17:58;;;;;;;10.68;6.53;;;;;;;26.42;76.53;98544.31;4849416;29;20043;-87
2022/06/23 10:20:34;;;;;;;9.30;5.82;;;;;;;26.58;77.35;98542.78;4903509;29;20044;-86
2022/06/23 10:23:25;;;;;;;8.27;5.60;;;;;;;26.66;75.82;98536.59;4903983;29;20044;-87
2022/06/23 10:26:07;;;;;;;9.75;5.70;;;;;;;26.81;74.43;98542.66;4882704;29;20040;-86
2022/06/23 10:28:55;;;;;;;9.57;5.78;;;;;;;27.09;74.74;98540.47;4903742;29;20096;-86
2022/06/23 10:31:43;;;;;;;8.77;5.90;;;;;;;27.34;74.90;98542.69;4908576;29;20036;-86
2022/06/23 10:34:12;;;;;;;7.93;5.60;;;;;;;27.40;72.16;98541.41;4867800;29;20048;-86
2022/06/23 10:37:19;;;;;;;6.70;5.70;;;;;;;27.57;73.75;98529.06;4901595;29;20033;-86
2022/06/23 10:40:06;;;;;;;6.22;5.30;;;;;;;27.69;72.98;98539.94;4903062;29;20037;-86
2022/06/23 10:42:42;;;;;;;7.13;5.80;;;;;;;27.99;72.13;98529.22;4905615;29;20028;-87
2022/06/23 10:45:33;;;;;;;8.40;5.93;;;;;;;28.21;71.93;98522.03;4873869;29;20032;-85
2022/06/23 10:48:38;;;;;;;13.13;5.97;;;;;;;28.42;68.80;98513.97;4900269;29;20100;-86
2022/06/23 10:51:18;;;;;;;9.07;6.10;;;;;;;28.83;68.67;98517.06;4907344;29;20038;-87
2022/06/23 10:54:20;;;;;;;5.75;5.25;;;;;;;28.79;66.56;98508.00;4885653;29;20045;-87
2022/06/23 10:57:00;;;;;;;8.93;5.75;;;;;;;28.70;67.03;98505.38;4905253;29;20040;-87
2022/06/23 10:59:40;;;;;;;6.32;5.75;;;;;;;28.72;67.79;98505.06;4904855;29;20522;-87
2022/06/23 11:02:30;;;;;;;7.50;6.22;;;;;;;28.73;67.28;98495.84;4898243;29;20539;-85
2022/06/23 11:05:04;;;;;;;10.10;6.57;;;;;;;28.50;64.38;98494.22;4902014;29;20036;-85
2022/06/23 11:07:37;;;;;;;8.52;6.63;;;;;;;28.64;65.30;98487.78;4902004;29;20024;-88
2022/06/23 11:10:15;;;;;;;7.70;6.90;;;;;;;28.81;65.14;98488.81;4891343;29;20197;-88
2022/06/23 11:12:57;;;;;;;8.98;5.80;;;;;;;29.13;65.21;98492.66;4901770;29;20032;-85
2022/06/23 11:15:32;;;;;;;11.55;9.32;;;;;;;29.48;65.02;98484.25;4905851;29;20369;-86
2022/06/23 11:18:09;;;;;;;8.40;7.57;;;;;;;29.79;65.75;98493.75;4869419;29;20092;-83
2022/06/23 11:20:49;;;;;;;9.23;6.30;;;;;;;30.07;64.04;98484.19;4904894;29;20479;-85
2022/06/23 11:23:44;;;;;;;9.68;5.93;;;;;;;30.02;61.65;98479.78;4908152;29;20036;-87
2022/06/23 11:26:35;;;;;;;8.30;6.00;;;;;;;29.74;61.40;98479.63;4889347;29;20033;-88
2022/06/23 11:29:31;;;;;;;7.80;6.90;;;;;;;29.47;60.62;98471.81;4903898;29;20866;-87
2022/06/23 11:32:05;;;;;;;6.57;6.00;;;;;;;29.35;62.80;98469.84;4908901;29;20034;-87
2022/06/23 11:35:06;;;;;;;10.23;6.13;;;;;;;29.48;63.68;98465.31;4874796;29;20069;-87
2022/06/23 11:37:48;;;;;;;8.30;6.55;;;;;;;29.63;62.47;98455.75;4904177;29;20032;-87
2022/06/23 11:40:20;;;;;;;8.95;6.38;;;;;;;29.67;62.90;98455.06;4877746;29;20046;-88
2022/06/23 11:43:25;;;;;;;6.93;6.28;;;;;;;29.47;60.05;98458.31;4910827;29;20040;-88
2022/06/23 11:46:23;;;;;;;6.95;5.90;;;;;;;29.78;61.93;98462.41;4891051;29;20028;-86
2022/06/23 11:49:27;;;;;;;11.25;6.28;;;;;;;29.96;61.80;98451.38;4890779;29;20029;-87
2022/06/23 11:52:15;;;;;;;6.95;6.25;;;;;;;30.26;62.27;98447.66;4849665;29;20635;-87
2022/06/23 11:55:00;;;;;;;7.35;6.10;;;;;;;30.40;60.08;98452.69;4894958;29;20052;-87
2022/06/23 11:58:01;;;;;;;6.88;6.32;;;;;;;30.60;60.43;98445.53;4911474;29;20060;-86
2022/06/23 12:01:10;;;;;;;11.05;7.10;;;;;;;30.74;57.65;98434.34;4823203;29;20038;-87
2022/06/23 12:03:51;;;;;;;8.65;6.47;;;;;;;30.83;59.05;98448.50;4889073;29;20070;-88
2022/06/23 12:06:19;;;;;;;8.35;6.75;;;;;;;30.79;57.45;98439.50;4909004;29;20032;-88
2022/06/23 12:09:21;;;;;;;8.63;5.80;;;;;;;30.61;57.54;98439.78;4891335;29;20131;-87
2022/06/23 12:12:06;;;;;;;7.10;5.85;;;;;;;30.61;58.24;98425.44;4908885;29;20024;-89
2022/06/23 12:14:33;;;;;;;7.50;5.93;;;;;;;31.16;57.02;98435.84;4877822;29;20050;-86
2022/06/23 12:17:09;;;;;;;6.55;5.90;;;;;;;31.32;56.98;98435.88;4906011;29;20043;-86
2022/06/23 12:19:45;;;;;;;8.90;5.97;;;;;;;31.43;55.78;98428.78;4903708;29;20039;-85
2022/06/23 12:22:17;;;;;;;10.10;5.88;;;;;;;31.60;56.30;98418.72;4910022;29;20043;-88
2022/06/23 12:24:52;;;;;;;9.75;5.47;;;;;;;31.83;55.18;98415.41;4903875;29;20479;-87
2022/06/23 12:27:24;;;;;;;6.28;5.35;;;;;;;31.79;53.86;98425.41;4872737;29;20051;-88
2022/06/23 12:30:02;;;;;;;8.40;5.80;;;;;;;32.07;53.54;98419.06;4907902;29;20112;-88
2022/06/23 12:32:34;;;;;;;8.07;5.55;;;;;;;32.46;53.86;98419.13;4893346;29;20487;-86
2022/06/23 12:35:04;;;;;;;6.63;6.03;;;;;;;32.86;52.29;98420.69;4890655;29;20064;-86
2022/06/23 12:37:58;;;;;;;7.07;5.03;;;;;;;33.06;52.16;98426.13;4907917;29;20125;-87
2022/06/23 12:40:42;;;;;;;7.22;5.20;;;;;;;33.17;50.56;98427.06;4909597;29;20503;-88
2022/06/23 12:43:32;;;;;;;6.22;5.45;;;;;;;32.97;51.30;98420.09;4905746;29;20037;-85
2022/06/23 12:46:11;;;;;;;6.28;5.72;;;;;;;32.86;51.86;98415.25;4904257;29;20550;-88
2022/06/23 12:48:51;;;;;;;6.10;5.60;;;;;;;32.85;52.65;98413.69;4875239;29;20040;-86
2022/06/23 12:51:43;;;;;;;6.03;5.38;;;;;;;32.69;51.85;98410.25;4888297;29;20035;-88
2022/06/23 12:54:12;;;;;;;5.50;5.00;;;;;;;32.80;52.09;98408.50;4890318;29;20483;-88
2022/06/23 12:56:54;;;;;;;7.72;5.97;;;;;;;32.38;51.24;98406.53;4889147;29;20447;-87
2022/06/23 12:59:23;;;;;;;7.45;5.65;;;;;;;32.52;51.56;98403.31;4891579;29;20032;-87
2022/06/23 13:01:58;;;;;;;5.68;5.18;;;;;;;32.54;51.70;98393.66;4906824;29;20392;-86
2022/06/23 13:04:35;;;;;;;6.93;5.18;;;;;;;32.88;50.91;98401.28;4902795;29;20055;-86
2022/06/23 13:07:10;;;;;;;5.90;5.30;;;;;;;32.80;51.38;98394.91;4889286;29;20046;-88